Data for 02/04/2007

Time Sea-Level Adjusted Pressure Absolute Pressure Temperature Relative Humidity Dew Point   
(mb) (inHg) (mb) (inHg) (C) (F) (%) (C) (F)
00:05 1020 30.12 849 25.07 -2.5 27.6 57 -9.9 14.2
00:10 1020 30.12 849 25.07 -2.5 27.5 53 -10.8 12.5
00:15 1020 30.12 849 25.07 -2.6 27.2 54 -10.7 12.8
00:20 1020 30.12 849 25.07 -3 26.6 54 -11.1 11.9
00:25 1020 30.12 849 25.07 -2.7 27.1 52 -11.3 11.7
00:30 1020 30.12 849 25.07 -2.7 27.2 57 -10.1 13.7
00:35 1020 30.12 849 25.07 -2.8 27 55 -10.6 13
00:40 1020 30.12 849 25.07 -2.7 27.1 55 -10.6 12.9
00:45 1020 30.12 849 25.07 -2.6 27.3 53 -10.9 12.4
00:50 1020 30.12 849 25.07 -2.5 27.5 53 -10.8 12.5
00:55 1020 30.12 849 25.07 -2.5 27.4 55 -10.4 13.2
01:00 1020 30.12 849 25.07 -2.9 26.9 53 -11.1 12.1
01:05 1020 30.12 849 25.07 -3.2 26.2 54 -11.2 11.8
01:10 1020 30.12 849 25.07 -3.2 26.2 54 -11.2 11.8
01:15 1020 30.12 849 25.07 -3.6 25.6 55 -11.4 11.6
01:20 1020 30.12 849 25.07 -3.5 25.7 53 -11.7 11
01:25 1020 30.12 849 25.07 -3.1 26.5 52 -11.7 11
01:30 1020 30.12 849 25.07 -3.1 26.4 57 -10.5 13.1
01:35 1020 30.12 849 25.07 -3 26.6 57 -10.5 13.1
01:40 1020 30.12 849 25.07 -2.9 26.8 55 -10.7 12.8
01:45 1020 30.12 849 25.07 -2.8 27 55 -10.6 12.9
01:50 1020 30.12 849 25.07 -2.7 27.2 52 -11.1 12
01:55 1020 30.12 849 25.07 -2.3 27.8 49 -11.7 10.9
02:00 1020 30.12 850 25.1 -1.8 28.7 47 -11.7 11
02:05 1020 30.12 850 25.1 -1.8 28.7 48 -11.6 11.2
02:10 1021 30.15 850 25.1 -2.1 28.2 50 -11.2 11.9
02:15 1021 30.15 850 25.1 -2.2 28 53 -10.7 12.8
02:20 1021 30.15 850 25.1 -2.2 28.1 50 -11.1 12
02:25 1021 30.15 850 25.1 -1.9 28.6 48 -11.6 11.1
02:30 1021 30.15 850 25.1 -1.5 29.3 48 -11.1 12
02:35 1021 30.15 850 25.1 -1.3 29.6 46 -11.5 11.3
02:40 1021 30.15 850 25.1 -1 30.2 48 -10.7 12.8
02:45 1021 30.15 850 25.1 -1 30.2 48 -10.8 12.6
02:50 1021 30.15 850 25.1 -0.9 30.5 47 -10.8 12.6
02:55 1021 30.15 850 25.1 -0.9 30.4 47 -11 12.3
03:00 1021 30.15 850 25.1 -0.8 30.6 48 -10.4 13.3
03:05 1021 30.15 850 25.1 -0.7 30.8 46 -11 12.3
03:10 1021 30.15 850 25.1 -0.5 31 49 -9.9 14.2
03:15 1021 30.15 850 25.1 -1 30.2 54 -9.2 15.4
03:20 1021 30.15 850 25.1 -1 30.2 51 -9.8 14.4
03:25 1021 30.15 850 25.1 -0.7 30.7 50 -10 14
03:30 1021 30.15 850 25.1 -0.4 31.3 49 -9.7 14.5
03:35 1021 30.15 850 25.1 -0.4 31.2 49 -9.8 14.4
03:40 1021 30.15 850 25.1 -0.3 31.4 49 -9.9 14.2
03:45 1021 30.15 850 25.1 -0.3 31.5 48 -10.1 13.8
03:50 1021 30.15 850 25.1 -0.5 31.1 50 -9.7 14.6
03:55 1021 30.15 850 25.1 -0.4 31.3 50 -9.7 14.6
04:00 1021 30.15 850 25.1 -0.3 31.4 47 -10.2 13.6
04:05 1021 30.15 851 25.13 -0.2 31.7 48 -9.9 14.3
04:10 1021 30.15 851 25.13 -0.3 31.5 47 -10.2 13.7
04:15 1021 30.15 850 25.1 -0.1 31.9 48 -9.9 14.1
04:20 1021 30.15 850 25.1 0.2 32.4 44 -10.6 13
04:25 1021 30.15 850 25.1 0.7 33.3 40 -11.4 11.5
04:30 1021 30.15 851 25.13 1 33.8 35 -12.8 9
04:35 1021 30.15 851 25.13 1 33.8 38 -11.7 11
04:40 1022 30.18 851 25.13 0.8 33.4 40 -11.3 11.7
04:45 1022 30.18 851 25.13 0.8 33.5 40 -11.3 11.7
04:50 1022 30.18 851 25.13 1.1 33.9 41 -10.7 12.8
04:55 1022 30.18 851 25.13 1.1 33.9 42 -10.4 13.3
05:00 1022 30.18 851 25.13 0.9 33.5 46 -9.6 14.8
05:05 1022 30.18 851 25.13 1.1 33.9 46 -9.3 15.3
05:10 1022 30.18 851 25.13 1.2 34.2 54 -7.1 19.3
05:15 1022 30.18 851 25.13 1 33.8 52 -7.9 17.8
05:20 1022 30.18 851 25.13 0.9 33.6 58 -6.5 20.3
05:25 1022 30.18 851 25.13 1.1 34 64 -5 23
05:30 1022 30.18 851 25.13 1.1 34 65 -4.8 23.4
05:35 1022 30.18 852 25.16 1 33.7 67 -4.5 23.9
05:40 1022 30.18 852 25.16 0.5 33 75 -3.4 25.9
05:45 1022 30.18 852 25.16 0.4 32.7 82 -2.4 27.8
05:50 1022 30.18 852 25.16 0.3 32.5 87 -1.7 29
05:55 1023 30.21 852 25.16 0.1 32.2 89 -1.4 29.4
06:00 1022 30.18 852 25.16 -0 31.9 91 -1.3 29.7
06:05 1022 30.18 852 25.16 -0.1 31.8 93 -1.1 29.9
06:10 1022 30.18 852 25.16 -0.1 31.7 94 -1 30.2
06:15 1022 30.18 852 25.16 -0.1 31.8 94 -0.9 30.4
06:20 1022 30.18 852 25.16 -0.1 31.8 95 -0.8 30.5
06:25 1022 30.18 852 25.16 -0 31.9 95 -0.8 30.5
06:30 1022 30.18 852 25.16 -0.1 31.7 95 -0.8 30.5
06:35 1022 30.18 852 25.16 -0.1 31.8 95 -0.7 30.7
06:40 1022 30.18 851 25.13 -0.1 31.9 96 -0.7 30.8
06:45 1022 30.18 852 25.16 0 32 96 -0.6 30.9
06:50 1022 30.18 852 25.16 0.1 32.1 96 -0.5 31
06:55 1022 30.18 852 25.16 0.1 32.2 96 -0.5 31.1
07:00 1022 30.18 852 25.16 0 32 95 -0.7 30.8
07:05 1023 30.21 852 25.16 -0.2 31.7 95 -1 30.3
07:10 1023 30.21 852 25.16 -0.4 31.3 95 -1.1 30.1
07:15 1023 30.21 852 25.16 -0.6 31 95 -1.2 29.8
07:20 1023 30.21 852 25.16 -0.7 30.7 96 -1.2 29.8
07:25 1023 30.21 852 25.16 -0.7 30.8 97 -1.1 30
07:30 1023 30.21 852 25.16 -0.6 31 97 -1 30.2
07:35 1022 30.18 852 25.16 -0.6 30.9 97 -1 30.2
07:40 1022 30.18 851 25.13 -0.6 31 98 -0.9 30.4
07:45 1022 30.18 851 25.13 -0.5 31.1 98 -0.8 30.5
07:50 1023 30.21 852 25.16 -0.5 31.2 98 -0.8 30.6
07:55 1023 30.21 852 25.16 -0.4 31.2 98 -0.7 30.7
08:00 1023 30.21 852 25.16 -0.3 31.4 99 -0.5 31
08:05 1023 30.21 852 25.16 -0.2 31.7 99 -0.4 31.3
08:10 1023 30.21 852 25.16 -0.1 31.9 98 -0.3 31.4
08:15 1023 30.21 852 25.16 -0 31.9 98 -0.3 31.4
08:20 1023 30.21 852 25.16 0.2 32.3 98 -0.1 31.8
08:25 1023 30.21 852 25.16 0.4 32.6 97 -0 32
08:30 1023 30.21 852 25.16 0.4 32.6 96 -0.1 31.7
08:35 1023 30.21 852 25.16 0.6 33 96 -0.1 31.9
08:40 1023 30.21 852 25.16 0.7 33.2 94 -0.3 31.5
08:45 1023 30.21 852 25.16 0.3 32.6 94 -0.5 31
08:50 1023 30.21 853 25.19 0.3 32.6 93 -0.7 30.8
08:55 1023 30.21 853 25.19 0.1 32.1 95 -0.7 30.7
09:00 1023 30.21 853 25.19 0.2 32.4 95 -0.5 31.1
09:05 1023 30.21 853 25.19 0.5 32.8 94 -0.5 31.2
09:10 1024 30.24 853 25.19 0.4 32.7 93 -0.5 31
09:15 1024 30.24 853 25.19 0.6 33 93 -0.4 31.2
09:20 1023 30.21 853 25.19 0.8 33.5 93 -0.3 31.5
09:25 1024 30.24 853 25.19 1.1 34 91 -0.2 31.6
09:30 1024 30.24 853 25.19 1.2 34.2 84 -1.2 29.8
09:35 1024 30.24 853 25.19 1.7 35.1 83 -0.9 30.3
09:40 1024 30.24 853 25.19 2.1 35.8 79 -1.1 30.1
09:45 1024 30.24 853 25.19 2.3 36.2 80 -0.7 30.7
09:50 1024 30.24 853 25.19 2.6 36.7 80 -0.6 31
09:55 1024 30.24 853 25.19 2.8 37 79 -0.6 31
10:00 1023 30.21 853 25.19 3 37.3 78 -0.4 31.2
10:05 1023 30.21 853 25.19 3 37.4 76 -0.8 30.5
10:10 1024 30.24 853 25.19 2.9 37.2 75 -1.2 29.9
10:15 1024 30.24 853 25.19 3.1 37.6 74 -1.1 30
10:20 1024 30.24 853 25.19 3.8 38.9 70 -1.1 30.1
10:25 1024 30.24 853 25.19 4.6 40.2 67 -1 30.2
10:30 1024 30.24 853 25.19 5.2 41.3 64 -1.1 30
10:35 1024 30.24 853 25.19 5.4 41.7 63 -1 30.2
10:40 1024 30.24 853 25.19 5.2 41.4 64 -1 30.3
10:45 1024 30.24 853 25.19 5.1 41.2 63 -1.4 29.5
10:50 1024 30.24 854 25.22 5.4 41.7 62 -1.2 29.9
10:55 1024 30.24 854 25.22 5.7 42.3 61 -1.3 29.7
11:00 1024 30.24 853 25.19 6 42.9 60 -1.1 30
11:05 1024 30.24 854 25.22 5.9 42.7 61 -1 30.1
11:10 1024 30.24 854 25.22 6.1 42.9 60 -1.2 29.9
11:15 1024 30.24 854 25.22 5.7 42.3 61 -1.1 30.1
11:20 1024 30.24 854 25.22 4 39.1 69 -1.1 29.9
11:25 1025 30.27 854 25.22 2.8 37 71 -1.9 28.6
11:30 1024 30.24 854 25.22 2.7 36.8 71 -2 28.4
11:35 1025 30.27 854 25.22 2.9 37.3 71 -1.8 28.7
11:40 1025 30.27 854 25.22 3.2 37.7 70 -1.8 28.7
11:45 1025 30.27 854 25.22 3.8 38.8 68 -1.7 29
11:50 1024 30.24 854 25.22 4.3 39.8 64 -1.8 28.7
11:55 1024 30.24 854 25.22 5.1 41.2 61 -1.7 28.9
12:00 1024 30.24 854 25.22 6.2 43.2 58 -1.4 29.5
12:05 1024 30.24 853 25.19 6.6 44 57 -1.2 29.9
12:10 1024 30.24 853 25.19 7.1 44.7 56 -1.2 29.9
12:15 1024 30.24 853 25.19 7.5 45.5 55 -1 30.2
12:20 1024 30.24 853 25.19 7.8 46 52 -1.4 29.5
12:25 1024 30.24 853 25.19 7.7 45.8 53 -1.4 29.5
12:30 1024 30.24 853 25.19 7.6 45.7 52 -1.6 29
12:35 1024 30.24 853 25.19 7.7 45.9 53 -1.2 29.8
12:40 1024 30.24 853 25.19 7.3 45.1 55 -1.1 30
12:45 1024 30.24 853 25.19 7.6 45.7 52 -1.6 29.1
12:50 1024 30.24 853 25.19 8.1 46.7 50 -1.6 29.1
12:55 1024 30.24 853 25.19 8.4 47.1 49 -1.6 29.1
13:00 1024 30.24 853 25.19 9 48.1 47 -1.7 28.9
13:05 1024 30.24 853 25.19 8.6 47.6 48 -1.8 28.7
13:10 1023 30.21 853 25.19 8.6 47.4 48 -1.7 29
13:15 1023 30.21 853 25.19 9 48.1 48 -1.5 29.2
13:20 1024 30.24 853 25.19 8.6 47.5 48 -1.9 28.6
13:25 1023 30.21 853 25.19 7.7 45.9 52 -1.5 29.3
13:30 1023 30.21 853 25.19 7.7 45.9 45 -3.5 25.6
13:35 1023 30.21 853 25.19 8.3 46.9 46 -2.7 27.1
13:40 1023 30.21 853 25.19 8.4 47.1 47 -2.3 27.9
13:45 1023 30.21 853 25.19 7.8 46 49 -2.3 27.9
13:50 1023 30.21 853 25.19 7.8 46 49 -2.3 27.8
13:55 1023 30.21 853 25.19 8.2 46.7 47 -2.4 27.6
14:00 1023 30.21 853 25.19 8.9 48 44 -2.6 27.3
14:05 1023 30.21 853 25.19 9.1 48.4 45 -2.1 28.3
14:10 1023 30.21 853 25.19 9.1 48.4 46 -2 28.5
14:15 1023 30.21 853 25.19 9.2 48.5 44 -2.3 27.8
14:20 1023 30.21 853 25.19 9.3 48.8 44 -2.3 27.9
14:25 1024 30.24 853 25.19 9.2 48.5 43 -2.7 27.2
14:30 1023 30.21 853 25.19 8.9 48.1 44 -2.6 27.3
14:35 1023 30.21 853 25.19 8.9 48 44 -2.8 27
14:40 1023 30.21 853 25.19 8.9 48 44 -2.6 27.3
14:45 1023 30.21 853 25.19 8.8 47.8 44 -2.7 27.2
14:50 1023 30.21 853 25.19 8.8 47.8 43 -3 26.6
14:55 1024 30.24 853 25.19 8.8 47.8 44 -2.9 26.8
15:00 1024 30.24 853 25.19 9 48.2 44 -2.5 27.5
15:05 1024 30.24 853 25.19 8.7 47.7 45 -2.6 27.2
15:10 1024 30.24 853 25.19 8.5 47.4 46 -2.5 27.5
15:15 1024 30.24 853 25.19 8.7 47.6 45 -2.6 27.3
15:20 1024 30.24 853 25.19 8.6 47.4 46 -2.5 27.5
15:25 1024 30.24 853 25.19 8.5 47.4 45 -2.8 27
15:30 1024 30.24 853 25.19 8.6 47.4 45 -2.7 27.2
15:35 1024 30.24 853 25.19 8.6 47.5 44 -2.9 26.9
15:40 1024 30.24 853 25.19 8.6 47.5 43 -3.2 26.2
15:45 1024 30.24 853 25.19 8.5 47.4 43 -3.2 26.2
15:50 1024 30.24 853 25.19 8.4 47.2 45 -2.9 26.8
15:55 1024 30.24 853 25.19 8.3 47 44 -3.3 26
16:00 1024 30.24 853 25.19 8.2 46.8 43 -3.6 25.6
16:05 1024 30.24 853 25.19 8.2 46.7 44 -3.3 26
16:10 1024 30.24 853 25.19 7.9 46.2 44 -3.6 25.5
16:15 1024 30.24 853 25.19 7.9 46.3 43 -3.9 25.1
16:20 1024 30.24 853 25.19 8 46.5 43 -3.8 25.2
16:25 1024 30.24 853 25.19 8.1 46.6 43 -3.7 25.3
16:30 1024 30.24 853 25.19 8 46.4 44 -3.6 25.6
16:35 1024 30.24 853 25.19 7.7 45.9 45 -3.5 25.7
16:40 1024 30.24 853 25.19 7.7 45.8 46 -3.2 26.2
16:45 1024 30.24 853 25.19 7.7 45.8 45 -3.4 25.8
16:50 1024 30.24 854 25.22 7.6 45.8 47 -3.1 26.5
16:55 1024 30.24 854 25.22 7.1 44.8 49 -2.9 26.8
17:00 1024 30.24 854 25.22 7 44.5 49 -3.1 26.4
17:05 1024 30.24 854 25.22 6.4 43.5 51 -3 26.6
17:10 1024 30.24 854 25.22 6.4 43.6 51 -3.1 26.4
17:15 1024 30.24 854 25.22 6.7 44 50 -3.1 26.4
17:20 1024 30.24 854 25.22 6.8 44.3 49 -3.2 26.3
17:25 1024 30.24 854 25.22 7 44.6 47 -3.6 25.6
17:30 1025 30.27 854 25.22 7.2 45 48 -3.1 26.4
17:35 1025 30.27 854 25.22 7.2 44.9 48 -3.1 26.5
17:40 1025 30.27 854 25.22 7.2 44.9 47 -3.3 26
17:45 1025 30.27 854 25.22 7.4 45.3 47 -3.1 26.5
17:50 1025 30.27 854 25.22 7.5 45.5 46 -3.4 25.8
17:55 1025 30.27 854 25.22 7.6 45.8 46 -3.3 26
18:00 1025 30.27 854 25.22 7.6 45.6 46 -3.4 25.9
18:05 1025 30.27 854 25.22 7.5 45.6 45 -3.6 25.5
18:10 1025 30.27 854 25.22 7.8 46 44 -3.8 25.2
18:15 1025 30.27 854 25.22 7.9 46.3 44 -3.6 25.5
18:20 1025 30.27 854 25.22 7.6 45.6 45 -3.5 25.8
18:25 1025 30.27 854 25.22 7.4 45.4 46 -3.4 25.9
18:30 1025 30.27 854 25.22 7.3 45.2 46 -3.4 25.9
18:35 1025 30.27 854 25.22 7.3 45.1 48 -3 26.5
18:40 1025 30.27 854 25.22 7.1 44.7 48 -3.1 26.4
18:45 1025 30.27 855 25.25 6.7 44.1 51 -2.7 27.2
18:50 1025 30.27 854 25.22 6.6 43.9 50 -3.1 26.4
18:55 1025 30.27 854 25.22 6.8 44.2 50 -2.8 26.9
19:00 1025 30.27 855 25.25 6.8 44.3 49 -3.1 26.4
19:05 1025 30.27 855 25.25 6.8 44.2 49 -3.1 26.5
19:10 1026 30.3 855 25.25 6.9 44.5 50 -2.7 27.2
19:15 1026 30.3 855 25.25 6.7 44.1 50 -2.9 26.7
19:20 1026 30.3 855 25.25 6.7 44.1 48 -3.5 25.7
19:25 1026 30.3 855 25.25 7 44.5 49 -3 26.6
19:30 1026 30.3 855 25.25 7.2 44.9 52 -2.1 28.2
19:35 1026 30.3 855 25.25 7.2 44.9 51 -2.2 28
19:40 1026 30.3 855 25.25 7.1 44.8 51 -2.4 27.7
19:45 1026 30.3 855 25.25 7 44.6 51 -2.3 27.8
19:50 1026 30.3 855 25.25 6.9 44.4 52 -2.2 28
19:55 1026 30.3 855 25.25 6.9 44.4 52 -2.2 28.1
20:00 1026 30.3 855 25.25 6.8 44.2 56 -1.3 29.6
20:05 1026 30.3 855 25.25 6.6 43.9 57 -1.3 29.7
20:10 1026 30.3 855 25.25 6.5 43.8 58 -1.1 30
20:15 1026 30.3 855 25.25 6.4 43.5 58 -1.1 30
20:20 1026 30.3 855 25.25 6.3 43.4 59 -1.1 30.1
20:25 1026 30.3 855 25.25 6.2 43.1 60 -0.9 30.3
20:30 1026 30.3 855 25.25 6.1 43 61 -0.8 30.6
20:35 1026 30.3 855 25.25 6 42.8 62 -0.6 30.9
20:40 1026 30.3 855 25.25 5.9 42.6 62 -0.7 30.7
20:45 1026 30.3 855 25.25 5.7 42.3 64 -0.6 31
20:50 1026 30.3 855 25.25 5.6 42.1 64 -0.7 30.7
20:55 1026 30.3 855 25.25 5.5 41.9 64 -0.8 30.6
21:00 1026 30.3 855 25.25 5.6 42 63 -0.9 30.3
21:05 1026 30.3 855 25.25 5.6 42.1 64 -0.7 30.7
21:10 1026 30.3 855 25.25 5.6 42 64 -0.7 30.8
21:15 1026 30.3 855 25.25 5.6 42 66 -0.3 31.4
21:20 1026 30.3 855 25.25 5.4 41.6 67 -0.2 31.6
21:25 1026 30.3 855 25.25 5.3 41.6 66 -0.5 31.2
21:30 1026 30.3 855 25.25 5.3 41.5 67 -0.3 31.4
21:35 1026 30.3 855 25.25 5 41.1 69 -0.2 31.6
21:40 1025 30.27 855 25.25 4.9 40.8 68 -0.5 31.2
21:45 1025 30.27 855 25.25 4.9 40.8 69 -0.3 31.5
21:50 1025 30.27 855 25.25 4.8 40.6 70 -0.2 31.6
21:55 1025 30.27 855 25.25 4.8 40.7 70 -0.2 31.6
22:00 1025 30.27 855 25.25 4.8 40.7 71 -0.1 31.8
22:05 1025 30.27 855 25.25 4.8 40.6 72 0.1 32.2
22:10 1025 30.27 855 25.25 4.7 40.4 73 0.2 32.3
22:15 1025 30.27 855 25.25 4.6 40.2 74 0.3 32.6
22:20 1025 30.27 855 25.25 4.4 39.9 75 0.3 32.6
22:25 1025 30.27 855 25.25 4.3 39.7 75 0.3 32.5
22:30 1025 30.27 854 25.22 4.4 39.9 74 0.2 32.3
22:35 1025 30.27 854 25.22 4.5 40.2 72 -0 32
22:40 1025 30.27 854 25.22 4.7 40.5 73 0.3 32.6
22:45 1025 30.27 854 25.22 4.4 39.9 76 0.5 32.8
22:50 1025 30.27 855 25.25 4.2 39.5 76 0.3 32.5
22:55 1025 30.27 855 25.25 4.3 39.7 75 0.2 32.4
23:00 1025 30.27 855 25.25 4.4 40 73 -0 32
23:05 1025 30.27 855 25.25 4.4 40 75 0.4 32.8
23:10 1025 30.27 855 25.25 4 39.2 76 0.1 32.3
23:15 1025 30.27 854 25.22 4 39.2 76 0.3 32.5
23:20 1025 30.27 854 25.22 3.9 39 78 0.4 32.6
23:25 1025 30.27 854 25.22 3.9 39.1 77 0.3 32.6
23:30 1025 30.27 854 25.22 3.8 38.9 77 0.3 32.5
23:35 1025 30.27 854 25.22 4.2 39.5 76 0.4 32.7
23:40 1025 30.27 854 25.22 4 39.3 78 0.5 33
23:45 1025 30.27 854 25.22 3.9 39.1 78 0.5 32.9
23:50 1025 30.27 854 25.22 4.1 39.4 78 0.5 33
23:55 1025 30.27 854 25.22 4.4 39.8 77 0.7 33.2
24:00 1025 30.27 854 25.22 4.8 40.7 74 0.7 33.2